createdAt,value
2018-09-26T00:01:05.401Z,8.86
2018-09-26T00:03:39.554Z,8.88
2018-09-26T00:06:06.766Z,8.85
2018-09-26T00:08:34.023Z,8.79
2018-09-26T00:11:01.215Z,8.56
2018-09-26T00:13:28.340Z,8.53
2018-09-26T00:15:55.503Z,8.60
2018-09-26T00:18:22.669Z,8.07
2018-09-26T00:20:49.808Z,8.56
2018-09-26T00:23:17.013Z,7.71
2018-09-26T00:25:44.232Z,8.49
2018-09-26T00:28:11.438Z,8.47
2018-09-26T00:30:38.571Z,8.45
2018-09-26T00:33:05.756Z,8.31
2018-09-26T00:35:33.832Z,8.30
2018-09-26T00:38:01.042Z,8.22
2018-09-26T00:40:28.293Z,8.30
2018-09-26T00:42:56.353Z,8.22
2018-09-26T00:45:23.655Z,8.08
2018-09-26T00:47:51.009Z,8.11
2018-09-26T00:50:18.117Z,8.11
2018-09-26T00:52:45.341Z,7.98
2018-09-26T00:55:12.451Z,8.08
2018-09-26T00:57:39.710Z,8.08
2018-09-26T01:00:07.675Z,8.17
2018-09-26T01:02:34.908Z,8.08
2018-09-26T01:05:02.441Z,8.15
2018-09-26T01:07:29.647Z,8.06
2018-09-26T01:09:56.885Z,7.98
2018-09-26T01:12:24.171Z,7.85
2018-09-26T01:14:51.381Z,7.89
2018-09-26T01:17:18.570Z,7.95
2018-09-26T01:19:45.719Z,7.96
2018-09-26T01:22:12.926Z,7.95
2018-09-26T01:24:40.220Z,8.12
2018-09-26T01:27:07.638Z,8.07
2018-09-26T01:29:34.809Z,7.69
2018-09-26T01:32:02.099Z,7.58
2018-09-26T01:34:29.357Z,7.55
2018-09-26T01:36:56.733Z,7.56
2018-09-26T01:39:24.217Z,7.74
2018-09-26T01:41:51.402Z,7.77
2018-09-26T01:44:18.545Z,7.75
2018-09-26T01:46:45.971Z,7.71
2018-09-26T01:49:13.237Z,7.42
2018-09-26T01:51:40.401Z,7.76
2018-09-26T01:54:07.638Z,7.73
2018-09-26T01:56:34.846Z,7.90
2018-09-26T01:59:02.096Z,7.88
2018-09-26T02:01:29.340Z,7.62
2018-09-26T02:03:56.599Z,7.70
2018-09-26T02:06:23.884Z,7.72
2018-09-26T02:08:51.150Z,7.70
2018-09-26T02:11:18.394Z,7.65
2018-09-26T02:13:45.842Z,7.60
2018-09-26T02:16:13.137Z,7.62
2018-09-26T02:18:40.277Z,7.65
2018-09-26T02:21:07.507Z,7.70
2018-09-26T02:23:34.721Z,7.81
2018-09-26T02:26:01.943Z,7.83
2018-09-26T02:28:29.148Z,7.85
2018-09-26T02:30:56.312Z,7.88
2018-09-26T02:33:23.827Z,7.77
2018-09-26T02:35:51.054Z,7.72
2018-09-26T02:38:18.216Z,7.85
2018-09-26T02:40:45.430Z,7.82
2018-09-26T02:43:12.598Z,7.73
2018-09-26T02:45:39.759Z,7.62
2018-09-26T02:48:06.945Z,7.54
2018-09-26T02:50:34.172Z,7.56
2018-09-26T02:53:01.372Z,7.41
2018-09-26T02:55:28.531Z,7.42
2018-09-26T02:57:55.685Z,7.43
2018-09-26T03:00:22.814Z,7.38
2018-09-26T03:02:49.972Z,7.17
2018-09-26T03:05:17.091Z,7.21
2018-09-26T03:07:44.312Z,7.15
2018-09-26T03:10:11.424Z,7.01
2018-09-26T03:12:38.574Z,6.81
2018-09-26T03:15:05.698Z,6.83
2018-09-26T03:17:32.860Z,6.54
2018-09-26T03:20:00.044Z,6.43
2018-09-26T03:22:27.163Z,6.64
2018-09-26T03:24:54.302Z,6.83
2018-09-26T03:27:21.408Z,6.85
2018-09-26T03:29:48.530Z,6.90
2018-09-26T03:32:15.764Z,6.94
2018-09-26T03:34:42.955Z,6.97
2018-09-26T03:37:10.081Z,6.98
2018-09-26T03:39:37.282Z,6.92
2018-09-26T03:42:04.438Z,6.86
2018-09-26T03:44:31.604Z,6.87
2018-09-26T03:46:58.733Z,6.83
2018-09-26T03:49:25.955Z,6.47
2018-09-26T03:51:53.106Z,6.36
2018-09-26T03:54:20.227Z,6.37
2018-09-26T03:56:47.358Z,6.43
2018-09-26T03:59:14.502Z,6.49
2018-09-26T04:01:41.645Z,6.53
2018-09-26T04:04:08.990Z,6.39
2018-09-26T04:06:36.213Z,6.21
2018-09-26T04:09:05.124Z,6.16
2018-09-26T04:11:32.260Z,6.31
2018-09-26T04:13:59.410Z,6.40
2018-09-26T04:16:26.598Z,6.40
2018-09-26T04:18:53.725Z,6.56
2018-09-26T04:21:20.874Z,6.61
2018-09-26T04:23:47.989Z,6.66
2018-09-26T04:26:15.233Z,6.60
2018-09-26T04:28:42.396Z,6.64
2018-09-26T04:31:09.692Z,6.57
2018-09-26T04:33:36.898Z,6.44
2018-09-26T04:36:04.297Z,6.37
2018-09-26T04:38:31.492Z,6.35
2018-09-26T04:40:58.646Z,6.27
2018-09-26T04:43:26.557Z,6.21
2018-09-26T04:45:53.723Z,6.35
2018-09-26T04:48:20.997Z,6.39
2018-09-26T04:50:48.135Z,6.56
2018-09-26T04:53:19.236Z,6.44
2018-09-26T04:55:46.699Z,6.48
2018-09-26T04:58:13.881Z,6.59
2018-09-26T05:00:41.181Z,6.66
2018-09-26T05:03:08.979Z,6.60
2018-09-26T05:05:36.137Z,6.58
2018-09-26T05:08:03.484Z,6.64
2018-09-26T05:10:31.091Z,6.65
2018-09-26T05:12:58.231Z,6.65
2018-09-26T05:15:25.398Z,6.64
2018-09-26T05:17:52.530Z,6.59
2018-09-26T05:20:19.649Z,6.59
2018-09-26T05:22:46.871Z,6.54
2018-09-26T05:25:13.979Z,6.56
2018-09-26T05:27:41.129Z,6.48
2018-09-26T05:30:08.308Z,6.34
2018-09-26T05:32:35.548Z,6.32
2018-09-26T05:35:02.756Z,6.28
2018-09-26T05:37:29.922Z,6.39
2018-09-26T05:39:57.137Z,6.36
2018-09-26T05:42:24.915Z,6.22
2018-09-26T05:44:52.063Z,6.14
2018-09-26T05:47:19.238Z,6.06
2018-09-26T05:49:47.051Z,6.10
2018-09-26T05:52:14.224Z,6.16
2018-09-26T05:54:41.499Z,6.29
2018-09-26T05:57:08.859Z,6.28
2018-09-26T05:59:36.167Z,6.32
2018-09-26T06:02:03.273Z,6.38
2018-09-26T06:04:30.541Z,6.48
2018-09-26T06:06:57.751Z,6.52
2018-09-26T06:09:25.003Z,6.39
2018-09-26T06:11:52.358Z,6.38
2018-09-26T06:14:20.063Z,6.39
2018-09-26T06:16:47.386Z,6.36
2018-09-26T06:19:14.768Z,6.39
2018-09-26T06:21:42.045Z,6.50
2018-09-26T06:24:09.641Z,6.65
2018-09-26T06:26:37.014Z,6.81
2018-09-26T06:29:04.293Z,6.79
2018-09-26T06:31:31.578Z,6.77
2018-09-26T06:33:58.943Z,6.79
2018-09-26T06:36:26.200Z,6.79
2018-09-26T06:38:53.563Z,6.83
2018-09-26T06:41:20.893Z,6.88
2018-09-26T06:43:48.271Z,6.94
2018-09-26T06:46:15.519Z,7.01
2018-09-26T06:48:42.770Z,7.00
2018-09-26T06:51:10.105Z,7.13
2018-09-26T06:53:37.375Z,7.20
2018-09-26T06:56:04.783Z,7.41
2018-09-26T06:58:32.182Z,7.52
2018-09-26T07:00:59.497Z,7.56
2018-09-26T07:03:26.726Z,7.71
2018-09-26T07:05:53.898Z,7.87
2018-09-26T07:08:21.266Z,7.96
2018-09-26T07:10:48.414Z,7.86
2018-09-26T07:13:15.936Z,8.12
2018-09-26T07:15:43.100Z,8.31
2018-09-26T07:18:10.291Z,8.29
2018-09-26T07:20:38.027Z,8.38
2018-09-26T07:23:05.329Z,8.46
2018-09-26T07:25:32.498Z,8.59
2018-09-26T07:28:00.141Z,8.66
2018-09-26T07:30:27.394Z,8.70
2018-09-26T07:32:54.631Z,8.69
2018-09-26T07:35:21.747Z,8.80
2018-09-26T07:37:48.986Z,9.00
2018-09-26T07:40:16.272Z,9.20
2018-09-26T07:42:43.497Z,9.17
2018-09-26T07:45:10.881Z,9.06
2018-09-26T07:47:38.271Z,8.88
2018-09-26T07:50:05.788Z,9.01
2018-09-26T07:52:33.242Z,9.26
2018-09-26T07:55:00.637Z,9.44
2018-09-26T07:57:27.806Z,9.73
2018-09-26T07:59:55.201Z,9.96
2018-09-26T08:02:22.439Z,10.21
2018-09-26T08:04:49.651Z,10.29
2018-09-26T08:07:16.944Z,10.37
2018-09-26T08:09:44.179Z,10.48
2018-09-26T08:12:11.415Z,10.59
2018-09-26T08:14:38.803Z,10.68
2018-09-26T08:17:05.971Z,10.79
2018-09-26T08:19:33.386Z,10.87
2018-09-26T08:22:00.621Z,11.03
2018-09-26T08:24:27.890Z,11.14
2018-09-26T08:26:55.194Z,11.29
2018-09-26T08:29:22.465Z,11.40
2018-09-26T08:31:49.850Z,11.56
2018-09-26T08:34:17.157Z,11.70
2018-09-26T08:36:44.356Z,11.72
2018-09-26T08:39:12.886Z,11.60
2018-09-26T08:41:40.171Z,11.62
2018-09-26T08:44:07.634Z,11.73
2018-09-26T08:46:34.840Z,11.94
2018-09-26T08:49:02.088Z,12.12
2018-09-26T08:51:29.374Z,12.28
2018-09-26T08:53:56.605Z,12.24
2018-09-26T08:56:23.845Z,12.47
2018-09-26T08:58:51.072Z,12.61
2018-09-26T09:01:24.117Z,12.72
2018-09-26T09:03:51.441Z,12.64
2018-09-26T09:06:18.827Z,12.80
2018-09-26T09:08:46.015Z,12.91
2018-09-26T09:11:13.363Z,13.02
2018-09-26T09:13:40.549Z,13.08
2018-09-26T09:16:08.077Z,13.03
2018-09-26T09:18:35.325Z,13.12
2018-09-26T09:21:03.819Z,13.29
2018-09-26T09:23:31.463Z,13.35
2018-09-26T09:25:58.676Z,13.33
2018-09-26T09:28:25.924Z,13.31
2018-09-26T09:30:53.254Z,13.40
2018-09-26T09:33:20.620Z,13.33
2018-09-26T09:35:47.928Z,13.36
2018-09-26T09:38:15.294Z,13.50
2018-09-26T09:40:42.528Z,13.66
2018-09-26T09:43:09.939Z,13.75
2018-09-26T09:45:37.454Z,13.71
2018-09-26T09:48:04.703Z,13.72
2018-09-26T09:50:31.962Z,13.67
2018-09-26T09:52:59.253Z,13.69
2018-09-26T09:55:26.547Z,13.91
2018-09-26T09:57:53.924Z,14.09
2018-09-26T10:00:25.706Z,14.21
2018-09-26T10:02:53.138Z,14.33
2018-09-26T10:05:20.241Z,14.41
2018-09-26T10:07:47.443Z,14.39
2018-09-26T10:10:14.653Z,14.43
2018-09-26T10:12:41.852Z,14.55
2018-09-26T10:15:09.099Z,14.70
2018-09-26T10:17:36.414Z,14.75
2018-09-26T10:20:03.749Z,14.83
2018-09-26T10:22:30.965Z,15.00
2018-09-26T10:24:58.292Z,15.19
2018-09-26T10:27:25.451Z,15.34
2018-09-26T10:29:52.806Z,15.46
2018-09-26T10:32:20.043Z,15.57
2018-09-26T10:34:47.376Z,15.67
2018-09-26T10:37:14.616Z,15.60
2018-09-26T10:39:41.857Z,15.74
2018-09-26T10:42:09.591Z,15.79
2018-09-26T10:44:36.860Z,15.90
2018-09-26T10:47:04.433Z,15.93
2018-09-26T10:49:32.454Z,15.73
2018-09-26T10:51:59.675Z,16.11
2018-09-26T10:54:26.864Z,16.13
2018-09-26T10:56:54.070Z,15.64
2018-09-26T10:59:21.368Z,16.28
2018-09-26T11:01:48.813Z,16.45
2018-09-26T11:04:16.716Z,16.51
2018-09-26T11:06:43.907Z,16.57
2018-09-26T11:09:11.494Z,16.77
2018-09-26T11:11:39.144Z,16.75
2018-09-26T11:14:06.448Z,16.49
2018-09-26T11:16:33.754Z,16.49
2018-09-26T11:19:01.339Z,16.55
2018-09-26T11:21:28.498Z,16.52
2018-09-26T11:23:55.871Z,16.61
2018-09-26T11:26:23.400Z,16.81
2018-09-26T11:28:50.664Z,17.16
2018-09-26T11:31:17.942Z,17.11
2018-09-26T11:33:45.756Z,17.03
2018-09-26T11:36:12.908Z,17.04
2018-09-26T11:38:40.131Z,17.21
2018-09-26T11:41:07.458Z,17.31
2018-09-26T11:43:34.662Z,17.36
2018-09-26T11:46:01.938Z,17.52
2018-09-26T11:48:29.192Z,17.61
2018-09-26T11:51:02.919Z,17.62
2018-09-26T11:53:30.555Z,17.64
2018-09-26T11:55:58.967Z,17.86
2018-09-26T11:58:26.423Z,18.02
2018-09-26T12:00:53.782Z,17.86
2018-09-26T12:03:22.117Z,17.93
2018-09-26T12:05:49.323Z,17.96
2018-09-26T12:08:16.621Z,18.16
2018-09-26T12:10:43.811Z,18.49
2018-09-26T12:13:11.084Z,18.68
2018-09-26T12:15:38.275Z,18.76
2018-09-26T12:18:05.587Z,18.82
2018-09-26T12:20:32.798Z,18.87
2018-09-26T12:23:00.072Z,18.94
2018-09-26T12:25:27.357Z,18.95
2018-09-26T12:27:54.667Z,18.97
2018-09-26T12:30:22.041Z,18.98
2018-09-26T12:32:49.186Z,18.98
2018-09-26T12:35:16.416Z,19.05
2018-09-26T12:37:43.720Z,18.82
2018-09-26T12:40:10.977Z,18.81
2018-09-26T12:42:39.248Z,18.66
2018-09-26T12:45:06.472Z,18.76
2018-09-26T12:47:33.816Z,18.99
2018-09-26T12:50:01.140Z,19.01
2018-09-26T12:52:28.412Z,18.97
2018-09-26T12:54:56.442Z,19.12
2018-09-26T12:57:23.820Z,19.04
2018-09-26T12:59:51.276Z,19.21
2018-09-26T13:02:18.657Z,19.20
2018-09-26T13:04:45.879Z,19.50
2018-09-26T13:07:13.211Z,19.46
2018-09-26T13:09:40.646Z,19.57
2018-09-26T13:12:08.009Z,19.76
2018-09-26T13:14:35.271Z,19.85
2018-09-26T13:17:02.768Z,20.16
2018-09-26T13:19:30.223Z,20.11
2018-09-26T13:21:57.886Z,20.13
2018-09-26T13:24:25.209Z,20.50
2018-09-26T13:26:52.434Z,20.68
2018-09-26T13:29:19.703Z,20.94
2018-09-26T13:31:47.101Z,21.19
2018-09-26T13:34:14.398Z,21.24
2018-09-26T13:36:41.601Z,21.11
2018-09-26T13:39:09.021Z,21.08
2018-09-26T13:41:36.253Z,21.12
2018-09-26T13:44:03.547Z,21.18
2018-09-26T13:46:30.803Z,20.53
2018-09-26T13:48:58.066Z,20.23
2018-09-26T13:51:25.343Z,20.11
2018-09-26T13:53:52.678Z,19.91
2018-09-26T13:56:19.907Z,20.01
2018-09-26T13:58:47.192Z,20.04
2018-09-26T14:01:14.411Z,19.79
2018-09-26T14:03:42.429Z,19.66
2018-09-26T14:06:09.706Z,19.72
2018-09-26T14:08:37.343Z,19.80
2018-09-26T14:11:04.612Z,19.82
2018-09-26T14:13:31.868Z,19.73
2018-09-26T14:15:59.169Z,19.85
2018-09-26T14:18:26.465Z,19.86
2018-09-26T14:20:53.686Z,19.94
2018-09-26T14:23:21.045Z,20.12
2018-09-26T14:25:48.659Z,20.49
2018-09-26T14:28:15.933Z,20.65
2018-09-26T14:30:43.383Z,20.53
2018-09-26T14:33:11.030Z,20.57
2018-09-26T14:35:38.264Z,20.75
2018-09-26T14:38:05.576Z,21.14
2018-09-26T14:40:32.770Z,21.75
2018-09-26T14:43:00.274Z,21.96
2018-09-26T14:45:27.606Z,22.00
2018-09-26T14:47:55.581Z,22.15
2018-09-26T14:50:23.162Z,22.13
2018-09-26T14:52:50.329Z,22.62
2018-09-26T14:55:17.460Z,22.47
2018-09-26T14:57:45.082Z,22.78
2018-09-26T15:00:13.221Z,23.20
2018-09-26T15:02:40.503Z,23.90
2018-09-26T15:05:07.947Z,24.49
2018-09-26T15:07:35.431Z,24.88
2018-09-26T15:10:02.618Z,24.71
2018-09-26T15:12:29.942Z,24.99
2018-09-26T15:14:57.126Z,25.05
2018-09-26T15:17:24.563Z,25.13
2018-09-26T15:19:51.784Z,23.83
2018-09-26T15:22:19.063Z,23.69
2018-09-26T15:24:46.393Z,23.97
2018-09-26T15:27:13.625Z,23.10
2018-09-26T15:29:40.830Z,22.26
2018-09-26T15:32:08.340Z,21.92
2018-09-26T15:34:35.712Z,21.82
2018-09-26T15:37:03.136Z,21.27
2018-09-26T15:39:30.406Z,21.14
2018-09-26T15:41:57.711Z,21.21
2018-09-26T15:44:25.090Z,21.17
2018-09-26T15:46:53.833Z,21.22
2018-09-26T15:49:21.072Z,20.90
2018-09-26T15:51:48.477Z,20.62
2018-09-26T15:54:15.808Z,20.48
2018-09-26T15:56:42.997Z,20.51
2018-09-26T15:59:10.597Z,20.24
2018-09-26T16:01:37.824Z,20.13
2018-09-26T16:04:05.061Z,20.05
2018-09-26T16:06:32.281Z,20.04
2018-09-26T16:08:59.562Z,19.94
2018-09-26T16:11:27.352Z,19.87
2018-09-26T16:13:54.527Z,19.80
2018-09-26T16:16:21.757Z,19.77
2018-09-26T16:18:49.110Z,19.69
2018-09-26T16:21:16.396Z,19.61
2018-09-26T16:23:43.645Z,19.58
2018-09-26T16:26:10.954Z,19.60
2018-09-26T16:28:38.117Z,19.57
2018-09-26T16:31:05.641Z,19.48
2018-09-26T16:33:32.949Z,19.45
2018-09-26T16:36:00.343Z,19.44
2018-09-26T16:38:27.753Z,19.43
2018-09-26T16:40:55.078Z,19.47
2018-09-26T16:43:22.396Z,19.56
2018-09-26T16:45:50.134Z,19.56
2018-09-26T16:48:17.345Z,19.48
2018-09-26T16:50:44.531Z,19.43
2018-09-26T16:53:11.766Z,19.42
2018-09-26T16:55:39.026Z,19.54
2018-09-26T16:58:06.274Z,19.63
2018-09-26T17:00:33.627Z,19.70
2018-09-26T17:03:01.038Z,19.74
2018-09-26T17:05:28.389Z,19.79
2018-09-26T17:07:55.632Z,19.84
2018-09-26T17:10:22.891Z,19.83
2018-09-26T17:12:50.096Z,19.83
2018-09-26T17:15:17.363Z,19.81
2018-09-26T17:17:44.605Z,19.69
2018-09-26T17:20:11.948Z,19.65
2018-09-26T17:22:39.373Z,19.61
2018-09-26T17:25:06.707Z,19.61
2018-09-26T17:27:34.021Z,19.57
2018-09-26T17:30:01.179Z,19.54
2018-09-26T17:32:28.407Z,19.53
2018-09-26T17:34:55.641Z,19.46
2018-09-26T17:37:22.953Z,19.40
2018-09-26T17:39:50.114Z,19.29
2018-09-26T17:42:17.561Z,19.03
2018-09-26T17:44:44.902Z,18.91
2018-09-26T17:47:12.438Z,18.95
2018-09-26T17:49:39.744Z,18.97
2018-09-26T17:52:06.943Z,18.90
2018-09-26T17:54:34.299Z,18.82
2018-09-26T17:57:01.468Z,18.80
2018-09-26T17:59:28.717Z,18.79
2018-09-26T18:01:56.136Z,18.73
2018-09-26T18:04:23.449Z,18.51
2018-09-26T18:06:58.249Z,18.32
2018-09-26T18:09:25.456Z,18.34
2018-09-26T18:11:52.604Z,18.38
2018-09-26T18:14:19.854Z,18.24
2018-09-26T18:16:47.094Z,18.03
2018-09-26T18:19:14.293Z,17.97
2018-09-26T18:21:41.487Z,17.61
2018-09-26T18:24:08.872Z,17.45
2018-09-26T18:26:36.126Z,17.25
2018-09-26T18:29:03.515Z,17.18
2018-09-26T18:31:30.864Z,17.45
2018-09-26T18:33:58.163Z,17.64
2018-09-26T18:36:25.570Z,17.77
2018-09-26T18:38:52.995Z,17.86
2018-09-26T18:41:20.154Z,17.74
2018-09-26T18:43:47.472Z,17.75
2018-09-26T18:46:16.464Z,17.81
2018-09-26T18:48:43.746Z,17.35
2018-09-26T18:51:11.447Z,17.17
2018-09-26T18:53:38.796Z,16.95
2018-09-26T18:56:06.163Z,17.00
2018-09-26T18:58:33.417Z,17.00
2018-09-26T19:01:00.696Z,16.88
2018-09-26T19:03:28.039Z,16.76
2018-09-26T19:05:55.370Z,17.00
2018-09-26T19:08:22.659Z,17.15
2018-09-26T19:10:49.931Z,17.28
2018-09-26T19:13:17.106Z,17.35
2018-09-26T19:15:44.341Z,17.41
2018-09-26T19:18:11.619Z,17.45
2018-09-26T19:20:39.077Z,17.43
2018-09-26T19:23:06.372Z,17.42
2018-09-26T19:25:33.672Z,17.31
2018-09-26T19:28:00.999Z,17.17
2018-09-26T19:30:28.409Z,16.97
2018-09-26T19:32:55.784Z,16.94
2018-09-26T19:35:23.092Z,16.76
2018-09-26T19:37:50.411Z,16.79
2018-09-26T19:40:17.754Z,16.62
2018-09-26T19:42:44.930Z,16.81
2018-09-26T19:45:12.290Z,16.78
2018-09-26T19:47:39.465Z,16.68
2018-09-26T19:50:06.762Z,16.81
2018-09-26T19:52:34.040Z,16.86
2018-09-26T19:55:01.414Z,16.84
2018-09-26T19:57:29.055Z,16.82
2018-09-26T19:59:56.385Z,16.81
2018-09-26T20:02:23.624Z,16.53
2018-09-26T20:04:50.867Z,14.37
2018-09-26T20:07:18.074Z,16.31
2018-09-26T20:09:45.267Z,16.47
2018-09-26T20:12:12.495Z,16.61
2018-09-26T20:14:39.697Z,16.47
2018-09-26T20:17:06.910Z,15.98
2018-09-26T20:19:35.207Z,15.74
2018-09-26T20:22:02.483Z,15.43
2018-09-26T20:24:30.692Z,15.64
2018-09-26T20:26:57.957Z,15.86
2018-09-26T20:29:25.388Z,16.11
2018-09-26T20:31:52.665Z,16.09
2018-09-26T20:34:19.879Z,15.94
2018-09-26T20:36:47.094Z,16.05
2018-09-26T20:39:14.354Z,16.13
2018-09-26T20:41:41.635Z,16.12
2018-09-26T20:44:09.078Z,16.21
2018-09-26T20:46:36.329Z,16.26
2018-09-26T20:49:03.562Z,16.23
2018-09-26T20:51:31.120Z,16.25
2018-09-26T20:53:58.291Z,16.22
2018-09-26T20:56:25.625Z,16.16
2018-09-26T20:58:52.835Z,16.23
2018-09-26T21:01:20.096Z,16.09
2018-09-26T21:03:47.283Z,16.13
2018-09-26T21:06:14.489Z,15.99
2018-09-26T21:08:41.789Z,16.00
2018-09-26T21:11:09.014Z,15.90
2018-09-26T21:13:36.258Z,15.88
2018-09-26T21:16:03.443Z,15.71
2018-09-26T21:18:30.702Z,15.70
2018-09-26T21:20:58.514Z,15.56
2018-09-26T21:23:25.781Z,15.47
2018-09-26T21:25:52.949Z,15.31
2018-09-26T21:28:20.169Z,15.10
2018-09-26T21:30:47.482Z,15.29
2018-09-26T21:33:14.739Z,15.42
2018-09-26T21:35:41.916Z,15.57
2018-09-26T21:38:09.109Z,15.62
2018-09-26T21:40:36.243Z,15.63
2018-09-26T21:43:03.434Z,15.70
2018-09-26T21:45:30.633Z,15.72
2018-09-26T21:47:57.958Z,15.46
2018-09-26T21:50:25.157Z,15.33
2018-09-26T21:52:52.393Z,15.34
2018-09-26T21:55:19.576Z,15.31
2018-09-26T21:57:46.745Z,15.34
2018-09-26T22:00:14.186Z,15.24
2018-09-26T22:02:41.456Z,15.04
2018-09-26T22:05:08.735Z,14.70
2018-09-26T22:07:36.029Z,14.41
2018-09-26T22:10:03.317Z,13.68
2018-09-26T22:12:30.674Z,13.07
2018-09-26T22:14:57.932Z,12.43
2018-09-26T22:17:25.276Z,12.08
2018-09-26T22:19:52.535Z,11.89
2018-09-26T22:22:19.765Z,11.86
2018-09-26T22:24:47.061Z,11.81
2018-09-26T22:27:14.408Z,11.63
2018-09-26T22:29:41.665Z,11.50
2018-09-26T22:32:08.859Z,11.37
2018-09-26T22:34:36.153Z,11.02
2018-09-26T22:37:03.314Z,10.90
2018-09-26T22:39:30.653Z,10.89
2018-09-26T22:41:57.828Z,10.92
2018-09-26T22:44:25.055Z,11.00
2018-09-26T22:46:52.265Z,10.99
2018-09-26T22:49:19.670Z,10.97
2018-09-26T22:51:46.927Z,10.88
2018-09-26T22:54:14.249Z,10.93
2018-09-26T22:56:41.919Z,10.92
2018-09-26T22:59:09.337Z,11.02
2018-09-26T23:01:36.553Z,10.99
2018-09-26T23:04:03.801Z,10.90
2018-09-26T23:06:31.069Z,10.90
2018-09-26T23:08:58.299Z,10.86
2018-09-26T23:11:25.646Z,10.90
2018-09-26T23:13:52.826Z,10.81
2018-09-26T23:16:20.460Z,10.54
2018-09-26T23:18:47.844Z,10.12
2018-09-26T23:21:15.129Z,9.97
2018-09-26T23:23:42.801Z,9.92
2018-09-26T23:26:10.012Z,9.92
2018-09-26T23:28:37.339Z,10.04
2018-09-26T23:31:04.791Z,10.16
2018-09-26T23:33:32.291Z,10.10
2018-09-26T23:35:59.667Z,10.25
2018-09-26T23:38:27.006Z,10.26
2018-09-26T23:40:54.438Z,10.19
2018-09-26T23:43:22.051Z,10.22
2018-09-26T23:45:49.497Z,10.00
2018-09-26T23:48:16.811Z,10.11
2018-09-26T23:50:44.094Z,10.12
2018-09-26T23:53:11.265Z,10.13
2018-09-26T23:55:38.523Z,10.09
2018-09-26T23:58:05.764Z,10.03
